createdAt,value
2023-08-08T00:02:43.946Z,13.20
2023-08-08T00:07:46.760Z,13.03
2023-08-08T00:12:49.272Z,12.99
2023-08-08T00:17:51.986Z,12.96
2023-08-08T00:22:54.368Z,13.02
2023-08-08T00:27:56.740Z,13.00
2023-08-08T00:32:59.418Z,12.90
2023-08-08T00:38:02.132Z,12.61
2023-08-08T00:43:04.778Z,12.49
2023-08-08T00:48:07.506Z,12.79
2023-08-08T00:53:09.928Z,12.66
2023-08-08T00:58:12.588Z,12.51
2023-08-08T01:03:15.155Z,12.44
2023-08-08T01:08:20.908Z,12.13
2023-08-08T01:13:24.871Z,12.27
2023-08-08T01:18:28.346Z,12.29
2023-08-08T01:23:55.482Z,12.16
2023-08-08T01:28:57.895Z,11.99
2023-08-08T01:34:00.380Z,11.99
2023-08-08T01:39:06.597Z,11.90
2023-08-08T01:44:09.184Z,11.89
2023-08-08T01:49:11.564Z,11.86
2023-08-08T01:54:14.017Z,12.03
2023-08-08T01:59:16.440Z,11.96
2023-08-08T02:04:19.401Z,11.92
2023-08-08T02:09:22.145Z,11.88
2023-08-08T02:14:24.658Z,11.93
2023-08-08T02:19:27.229Z,11.86
2023-08-08T02:24:30.003Z,11.97
2023-08-08T02:29:32.621Z,11.76
2023-08-08T02:34:35.986Z,11.84
2023-08-08T02:39:38.344Z,11.75
2023-08-08T02:44:40.662Z,11.72
2023-08-08T02:49:42.999Z,11.72
2023-08-08T02:54:45.628Z,11.56
2023-08-08T02:59:48.155Z,11.77
2023-08-08T03:04:50.882Z,11.82
2023-08-08T03:09:53.328Z,11.88
2023-08-08T03:14:56.008Z,12.01
2023-08-08T03:20:00.290Z,11.97
2023-08-08T03:25:04.196Z,11.89
2023-08-08T03:30:07.951Z,11.82
2023-08-08T03:35:16.345Z,11.82
2023-08-08T03:40:20.289Z,11.81
2023-08-08T03:45:22.961Z,11.84
2023-08-08T03:50:25.412Z,11.86
2023-08-08T03:55:27.774Z,11.94
2023-08-08T04:00:30.718Z,11.98
2023-08-08T04:05:33.152Z,12.01
2023-08-08T04:10:35.661Z,11.94
2023-08-08T04:15:38.054Z,13.36
2023-08-08T04:20:40.494Z,13.88
2023-08-08T04:25:42.774Z,13.02
2023-08-08T04:30:45.129Z,12.85
2023-08-08T04:35:48.713Z,14.60
2023-08-08T04:40:51.150Z,15.32
2023-08-08T04:45:53.572Z,13.97
2023-08-08T04:50:55.891Z,13.55
2023-08-08T04:55:58.302Z,14.78
2023-08-08T05:01:00.800Z,14.24
2023-08-08T05:06:04.210Z,14.34
2023-08-08T05:11:06.641Z,14.83
2023-08-08T05:16:09.110Z,15.21
2023-08-08T05:21:11.703Z,14.87
2023-08-08T05:26:14.156Z,15.88
2023-08-08T05:31:16.667Z,15.89
2023-08-08T05:36:19.143Z,15.29
2023-08-08T05:41:21.529Z,16.49
2023-08-08T05:46:23.942Z,16.60
2023-08-08T05:51:26.312Z,16.02
2023-08-08T05:56:38.778Z,16.20
2023-08-08T06:01:41.224Z,15.40
2023-08-08T06:06:43.575Z,15.72
2023-08-08T06:11:46.078Z,16.29
2023-08-08T06:16:48.646Z,16.57
2023-08-08T06:21:51.507Z,15.85
2023-08-08T06:26:54.235Z,16.28
2023-08-08T06:31:56.678Z,16.25
2023-08-08T06:36:59.365Z,15.25
2023-08-08T06:42:02.000Z,15.09
2023-08-08T06:47:15.599Z,14.79
2023-08-08T06:52:17.974Z,14.80
2023-08-08T06:57:20.562Z,14.91
2023-08-08T07:02:23.072Z,15.34
2023-08-08T07:07:26.134Z,15.38
2023-08-08T07:12:28.652Z,15.57
2023-08-08T07:17:31.169Z,15.72
2023-08-08T07:22:34.347Z,16.25
2023-08-08T07:27:36.866Z,16.08
2023-08-08T07:32:39.293Z,15.94
2023-08-08T07:37:41.705Z,15.49
2023-08-08T07:42:44.214Z,16.24
2023-08-08T07:47:46.882Z,15.92
2023-08-08T07:52:49.432Z,15.94
2023-08-08T07:57:51.863Z,15.67
2023-08-08T08:02:54.610Z,15.59
2023-08-08T08:07:57.088Z,15.58
2023-08-08T08:12:59.618Z,15.67
2023-08-08T08:18:02.213Z,15.72
2023-08-08T08:23:04.792Z,15.43
2023-08-08T08:28:07.361Z,16.36
2023-08-08T08:33:09.980Z,16.44
2023-08-08T08:38:12.588Z,15.97
2023-08-08T08:43:15.219Z,16.53
2023-08-08T08:48:20.020Z,16.08
2023-08-08T08:53:23.736Z,15.61
2023-08-08T08:58:27.168Z,16.05
2023-08-08T09:03:29.676Z,16.51
2023-08-08T09:08:32.103Z,16.86
2023-08-08T09:13:41.291Z,16.75
2023-08-08T09:18:43.922Z,16.72
2023-08-08T09:23:46.628Z,16.91
2023-08-08T09:28:49.051Z,16.54
2023-08-08T09:33:52.644Z,16.67
2023-08-08T09:38:55.727Z,16.93
2023-08-08T09:43:58.145Z,17.01
2023-08-08T09:49:00.692Z,16.50
2023-08-08T09:54:03.617Z,17.12
2023-08-08T09:59:07.300Z,17.68
2023-08-08T10:04:10.059Z,17.32
2023-08-08T10:09:13.169Z,17.02
2023-08-08T10:14:16.799Z,16.19
2023-08-08T10:19:23.675Z,16.78
2023-08-08T10:24:26.061Z,16.69
2023-08-08T10:29:29.966Z,17.10
2023-08-08T10:34:46.205Z,16.85
2023-08-08T10:39:55.080Z,16.73
2023-08-08T10:44:59.616Z,16.87
2023-08-08T10:50:15.955Z,16.87
2023-08-08T10:55:22.305Z,17.39
2023-08-08T11:00:30.869Z,17.95
2023-08-08T11:05:38.507Z,18.21
2023-08-08T11:10:43.154Z,18.36
2023-08-08T11:15:45.701Z,18.09
2023-08-08T11:20:48.623Z,17.89
2023-08-08T11:26:17.395Z,17.80
2023-08-08T11:31:14.962Z,18.60
2023-08-08T11:36:17.628Z,18.49
2023-08-08T11:41:24.546Z,19.00
2023-08-08T11:46:27.494Z,18.78
2023-08-08T11:51:30.195Z,19.20
2023-08-08T11:56:35.720Z,19.20
2023-08-08T12:01:39.900Z,18.74
2023-08-08T12:06:45.431Z,18.51
2023-08-08T12:11:48.190Z,18.34
2023-08-08T12:16:50.915Z,18.01
2023-08-08T12:21:53.660Z,17.76
2023-08-08T12:26:57.876Z,16.94
2023-08-08T12:32:00.561Z,15.33
2023-08-08T12:37:04.121Z,15.59
2023-08-08T12:42:07.192Z,15.95
2023-08-08T12:47:13.149Z,15.82
2023-08-08T12:52:17.429Z,16.66
2023-08-08T12:57:20.066Z,17.12
2023-08-08T13:02:22.455Z,17.50
2023-08-08T13:07:25.252Z,18.06
2023-08-08T13:12:27.747Z,18.16
2023-08-08T13:17:30.684Z,18.36
2023-08-08T13:22:33.193Z,18.85
2023-08-08T13:27:36.591Z,19.29
2023-08-08T13:32:39.783Z,19.62
2023-08-08T13:37:42.480Z,19.96
2023-08-08T13:42:48.942Z,20.50
2023-08-08T13:47:51.584Z,20.30
2023-08-08T13:52:54.482Z,19.87
2023-08-08T13:57:56.868Z,19.85
2023-08-08T14:03:00.188Z,20.13
2023-08-08T14:08:02.844Z,20.04
2023-08-08T14:13:06.821Z,19.88
2023-08-08T14:18:09.489Z,19.72
2023-08-08T14:23:12.746Z,19.54
2023-08-08T14:28:15.406Z,19.72
2023-08-08T14:33:18.505Z,19.54
2023-08-08T14:38:25.657Z,19.50
2023-08-08T14:43:28.099Z,19.42
2023-08-08T14:48:30.693Z,19.05
2023-08-08T14:53:34.977Z,18.57
2023-08-08T14:58:37.358Z,18.69
2023-08-08T15:03:42.481Z,18.61
2023-08-08T15:08:45.118Z,18.55
2023-08-08T15:13:47.604Z,18.48
2023-08-08T15:18:50.004Z,19.03
2023-08-08T15:23:52.602Z,19.40
2023-08-08T15:28:54.958Z,19.19
2023-08-08T15:33:57.424Z,19.15
2023-08-08T15:38:59.915Z,19.23
2023-08-08T15:44:02.243Z,19.24
2023-08-08T15:49:07.950Z,18.71
2023-08-08T15:54:10.372Z,18.34
2023-08-08T15:59:12.800Z,17.89
2023-08-08T16:04:16.349Z,17.81
2023-08-08T16:09:18.636Z,18.02
2023-08-08T16:14:21.310Z,17.83
2023-08-08T16:19:23.785Z,17.82
2023-08-08T16:24:26.535Z,18.27
2023-08-08T16:29:29.082Z,18.38
2023-08-08T16:34:32.419Z,18.23
2023-08-08T16:39:34.873Z,18.13
2023-08-08T16:44:37.637Z,17.78
2023-08-08T16:49:40.939Z,17.39
2023-08-08T16:54:43.649Z,17.13
2023-08-08T16:59:46.322Z,16.86
2023-08-08T17:04:50.410Z,17.01
2023-08-08T17:09:52.762Z,16.93
2023-08-08T17:14:55.924Z,16.78
2023-08-08T17:19:58.436Z,16.73
2023-08-08T17:25:00.990Z,16.59
2023-08-08T17:30:05.014Z,16.63
2023-08-08T17:35:08.275Z,16.57
2023-08-08T17:40:10.875Z,16.69
2023-08-08T17:45:14.221Z,16.72
2023-08-08T17:50:16.701Z,16.73
2023-08-08T17:55:19.780Z,16.66
2023-08-08T18:00:22.997Z,15.95
2023-08-08T18:05:25.748Z,14.93
2023-08-08T18:10:28.519Z,14.40
2023-08-08T18:15:31.076Z,13.91
2023-08-08T18:20:34.327Z,13.72
2023-08-08T18:25:36.883Z,13.57
2023-08-08T18:30:39.669Z,13.80
2023-08-08T18:35:42.656Z,13.82
2023-08-08T18:40:45.305Z,13.73
2023-08-08T18:45:50.748Z,13.78
2023-08-08T18:50:53.739Z,13.65
2023-08-08T18:55:56.355Z,13.72
2023-08-08T19:01:00.898Z,13.58
2023-08-08T19:06:07.320Z,13.57
2023-08-08T19:11:12.140Z,13.57
2023-08-08T19:16:15.034Z,13.48
2023-08-08T19:21:19.206Z,13.36
2023-08-08T19:26:27.233Z,13.33
2023-08-08T19:31:30.858Z,12.97
2023-08-08T19:36:34.042Z,13.08
2023-08-08T19:41:36.767Z,13.00
2023-08-08T19:46:39.372Z,12.95
2023-08-08T19:51:41.699Z,12.93
2023-08-08T19:56:44.536Z,12.94
2023-08-08T20:01:47.256Z,12.85
2023-08-08T20:06:56.854Z,12.93
2023-08-08T20:12:00.704Z,12.99
2023-08-08T20:17:04.159Z,12.96
2023-08-08T20:22:11.984Z,12.91
2023-08-08T20:27:14.971Z,12.95
2023-08-08T20:32:17.467Z,12.83
2023-08-08T20:37:20.725Z,12.97
2023-08-08T20:42:23.805Z,12.74
2023-08-08T20:47:26.906Z,12.81
2023-08-08T20:52:29.479Z,12.84
2023-08-08T20:57:34.866Z,12.77
2023-08-08T21:02:38.176Z,12.79
2023-08-08T21:07:40.944Z,12.92
2023-08-08T21:12:43.689Z,13.12
2023-08-08T21:17:47.221Z,13.28
2023-08-08T21:22:49.987Z,13.07
2023-08-08T21:27:52.825Z,13.24
2023-08-08T21:32:55.313Z,13.02
2023-08-08T21:37:57.702Z,13.14
2023-08-08T21:43:00.489Z,13.21
2023-08-08T21:48:16.349Z,12.88
2023-08-08T21:53:38.074Z,12.89
2023-08-08T21:58:40.621Z,12.82
2023-08-08T22:03:45.472Z,12.95
2023-08-08T22:08:48.669Z,12.49
2023-08-08T22:13:54.635Z,12.77
2023-08-08T22:18:57.339Z,12.71
2023-08-08T22:24:00.869Z,12.71
2023-08-08T22:29:10.570Z,12.59
2023-08-08T22:34:13.476Z,12.51
2023-08-08T22:39:19.291Z,12.48
2023-08-08T22:44:22.085Z,12.60
2023-08-08T22:49:32.618Z,12.82
2023-08-08T22:54:34.972Z,12.75
2023-08-08T22:59:37.968Z,12.80
2023-08-08T23:04:40.944Z,12.68
2023-08-08T23:09:43.843Z,12.62
2023-08-08T23:14:46.507Z,12.72
2023-08-08T23:19:49.055Z,12.62
2023-08-08T23:24:53.128Z,12.61
2023-08-08T23:29:56.018Z,12.72
2023-08-08T23:35:03.639Z,12.63
2023-08-08T23:40:11.748Z,12.69
2023-08-08T23:45:16.269Z,12.61
2023-08-08T23:50:18.872Z,12.61
2023-08-08T23:55:21.700Z,12.31
